sensor_id;sensor_type;location;lat;lon;timestamp;temperature;humidity
62154;DHT22;48140;45.486;9.226;2023-07-20T00:01:11;28.80;90.70
62154;DHT22;48140;45.486;9.226;2023-07-20T00:03:36;28.70;90.60
62154;DHT22;48140;45.486;9.226;2023-07-20T00:06:02;28.70;90.90
62154;DHT22;48140;45.486;9.226;2023-07-20T00:08:29;28.70;90.70
62154;DHT22;48140;45.486;9.226;2023-07-20T00:10:55;28.70;90.50
62154;DHT22;48140;45.486;9.226;2023-07-20T00:13:20;28.60;90.00
62154;DHT22;48140;45.486;9.226;2023-07-20T00:15:46;28.50;89.70
62154;DHT22;48140;45.486;9.226;2023-07-20T00:18:13;28.40;88.60
62154;DHT22;48140;45.486;9.226;2023-07-20T00:20:38;28.30;88.90
62154;DHT22;48140;45.486;9.226;2023-07-20T00:23:04;28.30;88.30
62154;DHT22;48140;45.486;9.226;2023-07-20T00:25:30;28.20;88.70
62154;DHT22;48140;45.486;9.226;2023-07-20T00:27:55;28.30;88.40
62154;DHT22;48140;45.486;9.226;2023-07-20T00:30:21;28.30;88.20
62154;DHT22;48140;45.486;9.226;2023-07-20T00:32:46;28.10;88.20
62154;DHT22;48140;45.486;9.226;2023-07-20T00:35:12;28.00;88.10
62154;DHT22;48140;45.486;9.226;2023-07-20T00:37:40;27.90;88.50
62154;DHT22;48140;45.486;9.226;2023-07-20T00:40:06;27.70;89.20
62154;DHT22;48140;45.486;9.226;2023-07-20T00:42:32;27.70;89.50
62154;DHT22;48140;45.486;9.226;2023-07-20T00:44:58;27.60;90.10
62154;DHT22;48140;45.486;9.226;2023-07-20T00:47:24;27.50;89.30
62154;DHT22;48140;45.486;9.226;2023-07-20T00:49:50;27.40;90.10
62154;DHT22;48140;45.486;9.226;2023-07-20T00:52:16;27.40;90.10
62154;DHT22;48140;45.486;9.226;2023-07-20T00:54:42;27.30;90.10
62154;DHT22;48140;45.486;9.226;2023-07-20T00:57:08;27.20;90.30
62154;DHT22;48140;45.486;9.226;2023-07-20T00:59:34;27.30;90.30
62154;DHT22;48140;45.486;9.226;2023-07-20T01:02:01;27.10;90.60
62154;DHT22;48140;45.486;9.226;2023-07-20T01:04:26;27.10;90.60
62154;DHT22;48140;45.486;9.226;2023-07-20T01:07:04;27.00;90.70
62154;DHT22;48140;45.486;9.226;2023-07-20T01:09:34;27.00;90.90
62154;DHT22;48140;45.486;9.226;2023-07-20T01:12:07;27.00;91.00
62154;DHT22;48140;45.486;9.226;2023-07-20T01:14:34;26.90;90.80
62154;DHT22;48140;45.486;9.226;2023-07-20T01:17:00;26.70;91.10
62154;DHT22;48140;45.486;9.226;2023-07-20T01:19:25;26.70;91.30
62154;DHT22;48140;45.486;9.226;2023-07-20T01:21:53;26.70;91.40
62154;DHT22;48140;45.486;9.226;2023-07-20T01:24:27;26.70;91.60
62154;DHT22;48140;45.486;9.226;2023-07-20T01:31:58;26.70;91.50
62154;DHT22;48140;45.486;9.226;2023-07-20T01:34:28;26.60;91.90
62154;DHT22;48140;45.486;9.226;2023-07-20T01:36:54;26.50;92.50
62154;DHT22;48140;45.486;9.226;2023-07-20T01:39:21;26.30;93.10
62154;DHT22;48140;45.486;9.226;2023-07-20T01:41:47;26.30;93.60
62154;DHT22;48140;45.486;9.226;2023-07-20T01:44:12;26.30;93.50
62154;DHT22;48140;45.486;9.226;2023-07-20T01:46:38;26.30;93.80
62154;DHT22;48140;45.486;9.226;2023-07-20T01:49:03;26.00;94.40
62154;DHT22;48140;45.486;9.226;2023-07-20T01:51:29;25.90;94.70
62154;DHT22;48140;45.486;9.226;2023-07-20T01:53:54;25.80;95.00
62154;DHT22;48140;45.486;9.226;2023-07-20T01:56:20;25.80;95.10
62154;DHT22;48140;45.486;9.226;2023-07-20T01:58:46;25.70;95.60
62154;DHT22;48140;45.486;9.226;2023-07-20T02:01:11;25.60;95.70
62154;DHT22;48140;45.486;9.226;2023-07-20T02:03:37;25.60;95.70
62154;DHT22;48140;45.486;9.226;2023-07-20T02:06:02;25.60;95.80
62154;DHT22;48140;45.486;9.226;2023-07-20T02:08:28;25.60;95.90
62154;DHT22;48140;45.486;9.226;2023-07-20T02:10:53;25.70;95.80
62154;DHT22;48140;45.486;9.226;2023-07-20T02:13:19;25.70;95.70
62154;DHT22;48140;45.486;9.226;2023-07-20T02:15:44;25.80;95.80
62154;DHT22;48140;45.486;9.226;2023-07-20T02:18:12;25.80;95.80
62154;DHT22;48140;45.486;9.226;2023-07-20T02:20:38;25.70;95.80
62154;DHT22;48140;45.486;9.226;2023-07-20T02:23:03;25.80;95.90
62154;DHT22;48140;45.486;9.226;2023-07-20T02:25:29;25.70;95.60
62154;DHT22;48140;45.486;9.226;2023-07-20T02:27:55;25.80;95.90
62154;DHT22;48140;45.486;9.226;2023-07-20T02:30:21;25.70;95.80
62154;DHT22;48140;45.486;9.226;2023-07-20T02:32:47;25.70;96.00
62154;DHT22;48140;45.486;9.226;2023-07-20T02:35:14;25.70;95.90
62154;DHT22;48140;45.486;9.226;2023-07-20T02:37:39;25.60;95.80
62154;DHT22;48140;45.486;9.226;2023-07-20T02:40:05;25.60;96.10
62154;DHT22;48140;45.486;9.226;2023-07-20T02:42:32;25.50;96.30
62154;DHT22;48140;45.486;9.226;2023-07-20T02:44:58;25.40;96.40
62154;DHT22;48140;45.486;9.226;2023-07-20T02:47:23;25.40;96.40
62154;DHT22;48140;45.486;9.226;2023-07-20T02:49:49;25.40;96.60
62154;DHT22;48140;45.486;9.226;2023-07-20T02:52:15;25.40;96.60
62154;DHT22;48140;45.486;9.226;2023-07-20T02:54:40;25.30;96.80
62154;DHT22;48140;45.486;9.226;2023-07-20T02:57:06;25.20;97.10
62154;DHT22;48140;45.486;9.226;2023-07-20T02:59:31;25.20;97.30
62154;DHT22;48140;45.486;9.226;2023-07-20T03:01:57;25.10;97.50
62154;DHT22;48140;45.486;9.226;2023-07-20T03:04:23;25.20;97.40
62154;DHT22;48140;45.486;9.226;2023-07-20T03:06:50;25.10;97.60
62154;DHT22;48140;45.486;9.226;2023-07-20T03:09:16;25.20;97.60
62154;DHT22;48140;45.486;9.226;2023-07-20T03:11:42;25.10;97.50
62154;DHT22;48140;45.486;9.226;2023-07-20T03:14:07;25.10;97.60
62154;DHT22;48140;45.486;9.226;2023-07-20T03:16:33;25.10;97.80
62154;DHT22;48140;45.486;9.226;2023-07-20T03:18:59;25.20;97.80
62154;DHT22;48140;45.486;9.226;2023-07-20T03:21:25;25.20;97.70
62154;DHT22;48140;45.486;9.226;2023-07-20T03:23:51;25.10;97.80
62154;DHT22;48140;45.486;9.226;2023-07-20T03:26:16;25.10;97.80
62154;DHT22;48140;45.486;9.226;2023-07-20T03:28:42;25.00;98.00
62154;DHT22;48140;45.486;9.226;2023-07-20T03:31:07;25.00;98.00
62154;DHT22;48140;45.486;9.226;2023-07-20T03:33:33;24.90;98.40
62154;DHT22;48140;45.486;9.226;2023-07-20T03:35:59;24.90;98.60
62154;DHT22;48140;45.486;9.226;2023-07-20T03:38:25;24.90;98.70
62154;DHT22;48140;45.486;9.226;2023-07-20T03:40:57;24.90;98.60
62154;DHT22;48140;45.486;9.226;2023-07-20T03:43:24;24.90;98.50
62154;DHT22;48140;45.486;9.226;2023-07-20T03:45:50;25.00;98.30
62154;DHT22;48140;45.486;9.226;2023-07-20T03:48:15;25.10;98.20
62154;DHT22;48140;45.486;9.226;2023-07-20T03:50:42;24.90;98.40
62154;DHT22;48140;45.486;9.226;2023-07-20T03:53:07;24.90;98.50
62154;DHT22;48140;45.486;9.226;2023-07-20T03:55:33;24.80;98.80
62154;DHT22;48140;45.486;9.226;2023-07-20T03:57:58;24.80;98.90
62154;DHT22;48140;45.486;9.226;2023-07-20T04:00:24;24.70;99.00
62154;DHT22;48140;45.486;9.226;2023-07-20T04:02:49;24.70;99.20
62154;DHT22;48140;45.486;9.226;2023-07-20T04:05:16;24.70;99.30
62154;DHT22;48140;45.486;9.226;2023-07-20T04:07:41;24.60;99.30
62154;DHT22;48140;45.486;9.226;2023-07-20T04:10:07;24.60;99.80
62154;DHT22;48140;45.486;9.226;2023-07-20T04:12:33;24.70;99.40
62154;DHT22;48140;45.486;9.226;2023-07-20T04:14:58;24.70;99.30
62154;DHT22;48140;45.486;9.226;2023-07-20T04:17:24;24.70;99.30
62154;DHT22;48140;45.486;9.226;2023-07-20T04:19:49;24.70;99.50
62154;DHT22;48140;45.486;9.226;2023-07-20T04:22:15;24.70;99.40
62154;DHT22;48140;45.486;9.226;2023-07-20T04:24:41;24.80;99.30
62154;DHT22;48140;45.486;9.226;2023-07-20T04:27:07;24.80;99.20
62154;DHT22;48140;45.486;9.226;2023-07-20T04:29:33;24.90;99.00
62154;DHT22;48140;45.486;9.226;2023-07-20T04:31:59;24.90;98.80
62154;DHT22;48140;45.486;9.226;2023-07-20T04:34:24;24.90;98.90
62154;DHT22;48140;45.486;9.226;2023-07-20T04:36:50;25.00;98.90
62154;DHT22;48140;45.486;9.226;2023-07-20T04:39:15;25.00;98.90
62154;DHT22;48140;45.486;9.226;2023-07-20T04:41:41;25.10;98.70
62154;DHT22;48140;45.486;9.226;2023-07-20T04:44:06;25.00;98.70
62154;DHT22;48140;45.486;9.226;2023-07-20T04:46:32;25.10;98.40
62154;DHT22;48140;45.486;9.226;2023-07-20T04:48:57;25.10;98.40
62154;DHT22;48140;45.486;9.226;2023-07-20T04:51:23;25.10;98.50
62154;DHT22;48140;45.486;9.226;2023-07-20T04:53:49;25.10;98.60
62154;DHT22;48140;45.486;9.226;2023-07-20T04:56:14;24.90;98.60
62154;DHT22;48140;45.486;9.226;2023-07-20T04:58:40;24.90;98.60
62154;DHT22;48140;45.486;9.226;2023-07-20T05:01:05;25.00;98.80
62154;DHT22;48140;45.486;9.226;2023-07-20T05:03:31;25.10;98.40
62154;DHT22;48140;45.486;9.226;2023-07-20T05:05:57;25.20;98.20
62154;DHT22;48140;45.486;9.226;2023-07-20T05:08:22;25.30;97.80
62154;DHT22;48140;45.486;9.226;2023-07-20T05:10:48;25.30;97.60
62154;DHT22;48140;45.486;9.226;2023-07-20T05:13:13;25.50;97.00
62154;DHT22;48140;45.486;9.226;2023-07-20T05:15:39;25.50;97.00
62154;DHT22;48140;45.486;9.226;2023-07-20T05:18:04;25.50;97.00
62154;DHT22;48140;45.486;9.226;2023-07-20T05:20:30;25.60;97.10
62154;DHT22;48140;45.486;9.226;2023-07-20T05:22:57;25.80;96.50
62154;DHT22;48140;45.486;9.226;2023-07-20T05:25:22;25.90;96.30
62154;DHT22;48140;45.486;9.226;2023-07-20T05:27:48;26.10;96.00
62154;DHT22;48140;45.486;9.226;2023-07-20T05:30:13;26.20;95.50
62154;DHT22;48140;45.486;9.226;2023-07-20T05:32:39;26.10;95.60
62154;DHT22;48140;45.486;9.226;2023-07-20T05:35:05;26.10;95.40
62154;DHT22;48140;45.486;9.226;2023-07-20T05:37:30;26.00;95.50
62154;DHT22;48140;45.486;9.226;2023-07-20T05:39:57;26.10;95.80
62154;DHT22;48140;45.486;9.226;2023-07-20T05:42:22;26.10;95.40
62154;DHT22;48140;45.486;9.226;2023-07-20T05:44:48;26.20;95.30
62154;DHT22;48140;45.486;9.226;2023-07-20T05:47:14;26.20;95.20
62154;DHT22;48140;45.486;9.226;2023-07-20T05:49:40;26.20;95.20
62154;DHT22;48140;45.486;9.226;2023-07-20T05:52:06;26.10;95.50
62154;DHT22;48140;45.486;9.226;2023-07-20T05:54:31;26.00;95.70
62154;DHT22;48140;45.486;9.226;2023-07-20T05:56:58;26.20;95.30
62154;DHT22;48140;45.486;9.226;2023-07-20T05:59:24;26.50;95.00
62154;DHT22;48140;45.486;9.226;2023-07-20T06:01:49;26.70;94.70
62154;DHT22;48140;45.486;9.226;2023-07-20T06:04:15;26.90;94.10
62154;DHT22;48140;45.486;9.226;2023-07-20T06:06:41;27.00;93.90
62154;DHT22;48140;45.486;9.226;2023-07-20T06:09:07;27.10;93.50
62154;DHT22;48140;45.486;9.226;2023-07-20T06:11:37;27.10;93.30
62154;DHT22;48140;45.486;9.226;2023-07-20T06:14:03;27.00;93.50
62154;DHT22;48140;45.486;9.226;2023-07-20T06:16:29;27.10;93.40
62154;DHT22;48140;45.486;9.226;2023-07-20T06:18:55;27.00;93.40
62154;DHT22;48140;45.486;9.226;2023-07-20T06:21:20;27.10;93.30
62154;DHT22;48140;45.486;9.226;2023-07-20T06:23:46;27.30;93.10
62154;DHT22;48140;45.486;9.226;2023-07-20T06:26:11;27.50;92.80
62154;DHT22;48140;45.486;9.226;2023-07-20T06:28:37;27.40;92.60
62154;DHT22;48140;45.486;9.226;2023-07-20T06:31:02;27.50;92.90
62154;DHT22;48140;45.486;9.226;2023-07-20T06:33:28;27.70;92.30
62154;DHT22;48140;45.486;9.226;2023-07-20T06:35:54;27.80;92.00
62154;DHT22;48140;45.486;9.226;2023-07-20T06:38:20;28.10;91.70
62154;DHT22;48140;45.486;9.226;2023-07-20T06:40:46;28.20;91.40
62154;DHT22;48140;45.486;9.226;2023-07-20T06:43:11;28.20;91.20
62154;DHT22;48140;45.486;9.226;2023-07-20T06:45:37;28.20;91.10
62154;DHT22;48140;45.486;9.226;2023-07-20T06:48:02;27.90;91.50
62154;DHT22;48140;45.486;9.226;2023-07-20T06:50:28;27.80;91.70
62154;DHT22;48140;45.486;9.226;2023-07-20T06:52:54;28.00;91.70
62154;DHT22;48140;45.486;9.226;2023-07-20T06:55:19;28.20;91.20
62154;DHT22;48140;45.486;9.226;2023-07-20T06:57:45;28.40;90.80
62154;DHT22;48140;45.486;9.226;2023-07-20T07:00:11;28.60;90.80
62154;DHT22;48140;45.486;9.226;2023-07-20T07:02:36;28.70;90.50
62154;DHT22;48140;45.486;9.226;2023-07-20T07:05:02;28.80;90.00
62154;DHT22;48140;45.486;9.226;2023-07-20T07:07:27;28.80;90.00
62154;DHT22;48140;45.486;9.226;2023-07-20T07:09:53;28.90;89.90
62154;DHT22;48140;45.486;9.226;2023-07-20T07:12:18;29.10;88.80
62154;DHT22;48140;45.486;9.226;2023-07-20T07:14:44;29.10;86.90
62154;DHT22;48140;45.486;9.226;2023-07-20T07:17:09;29.10;86.80
62154;DHT22;48140;45.486;9.226;2023-07-20T07:19:35;29.20;87.20
62154;DHT22;48140;45.486;9.226;2023-07-20T07:22:01;29.20;86.00
62154;DHT22;48140;45.486;9.226;2023-07-20T07:24:27;29.40;85.50
62154;DHT22;48140;45.486;9.226;2023-07-20T07:26:59;29.50;85.90
62154;DHT22;48140;45.486;9.226;2023-07-20T07:29:24;29.30;86.50
62154;DHT22;48140;45.486;9.226;2023-07-20T07:31:51;29.10;87.60
62154;DHT22;48140;45.486;9.226;2023-07-20T07:34:16;29.10;87.80
62154;DHT22;48140;45.486;9.226;2023-07-20T07:36:42;29.30;87.20
62154;DHT22;48140;45.486;9.226;2023-07-20T07:39:08;29.30;86.80
62154;DHT22;48140;45.486;9.226;2023-07-20T07:41:34;29.30;87.20
62154;DHT22;48140;45.486;9.226;2023-07-20T07:44:00;29.30;87.30
62154;DHT22;48140;45.486;9.226;2023-07-20T07:46:25;29.40;87.10
62154;DHT22;48140;45.486;9.226;2023-07-20T07:48:51;29.60;86.70
62154;DHT22;48140;45.486;9.226;2023-07-20T07:51:16;29.80;86.00
62154;DHT22;48140;45.486;9.226;2023-07-20T07:53:42;29.90;85.00
62154;DHT22;48140;45.486;9.226;2023-07-20T07:56:08;29.90;84.30
62154;DHT22;48140;45.486;9.226;2023-07-20T07:58:34;29.60;84.40
62154;DHT22;48140;45.486;9.226;2023-07-20T08:01:00;29.40;86.30
62154;DHT22;48140;45.486;9.226;2023-07-20T08:03:25;29.50;86.20
62154;DHT22;48140;45.486;9.226;2023-07-20T08:05:54;29.70;86.00
62154;DHT22;48140;45.486;9.226;2023-07-20T08:08:20;29.70;85.60
62154;DHT22;48140;45.486;9.226;2023-07-20T08:10:46;29.90;85.50
62154;DHT22;48140;45.486;9.226;2023-07-20T08:13:14;30.00;84.80
62154;DHT22;48140;45.486;9.226;2023-07-20T08:15:41;30.00;84.80
62154;DHT22;48140;45.486;9.226;2023-07-20T08:18:06;30.20;83.60
62154;DHT22;48140;45.486;9.226;2023-07-20T08:20:33;30.20;81.50
62154;DHT22;48140;45.486;9.226;2023-07-20T08:23:01;29.70;80.80
62154;DHT22;48140;45.486;9.226;2023-07-20T08:25:26;29.90;80.90
62154;DHT22;48140;45.486;9.226;2023-07-20T08:27:52;30.00;80.00
62154;DHT22;48140;45.486;9.226;2023-07-20T08:30:20;30.30;79.60
62154;DHT22;48140;45.486;9.226;2023-07-20T08:32:46;30.50;78.10
62154;DHT22;48140;45.486;9.226;2023-07-20T08:35:12;30.70;77.60
62154;DHT22;48140;45.486;9.226;2023-07-20T08:37:38;30.70;76.70
62154;DHT22;48140;45.486;9.226;2023-07-20T08:40:03;30.40;78.00
62154;DHT22;48140;45.486;9.226;2023-07-20T08:42:29;30.40;78.00
62154;DHT22;48140;45.486;9.226;2023-07-20T08:44:55;30.60;76.90
62154;DHT22;48140;45.486;9.226;2023-07-20T08:47:21;30.80;76.20
62154;DHT22;48140;45.486;9.226;2023-07-20T08:49:50;30.70;75.30
62154;DHT22;48140;45.486;9.226;2023-07-20T08:52:16;30.70;74.40
62154;DHT22;48140;45.486;9.226;2023-07-20T08:54:41;30.20;75.40
62154;DHT22;48140;45.486;9.226;2023-07-20T08:57:07;30.50;74.30
62154;DHT22;48140;45.486;9.226;2023-07-20T08:59:33;30.90;73.30
62154;DHT22;48140;45.486;9.226;2023-07-20T09:02:00;31.00;73.10
62154;DHT22;48140;45.486;9.226;2023-07-20T09:04:25;31.20;73.10
62154;DHT22;48140;45.486;9.226;2023-07-20T09:06:51;30.40;77.90
62154;DHT22;48140;45.486;9.226;2023-07-20T09:09:17;30.60;76.40
62154;DHT22;48140;45.486;9.226;2023-07-20T09:11:43;30.70;76.70
62154;DHT22;48140;45.486;9.226;2023-07-20T09:14:11;30.80;77.10
62154;DHT22;48140;45.486;9.226;2023-07-20T09:16:53;31.10;76.20
62154;DHT22;48140;45.486;9.226;2023-07-20T09:19:19;31.40;75.20
62154;DHT22;48140;45.486;9.226;2023-07-20T09:21:46;31.80;73.40
62154;DHT22;48140;45.486;9.226;2023-07-20T09:24:12;31.70;75.10
62154;DHT22;48140;45.486;9.226;2023-07-20T09:26:41;31.40;76.70
62154;DHT22;48140;45.486;9.226;2023-07-20T09:29:08;31.40;76.50
62154;DHT22;48140;45.486;9.226;2023-07-20T09:31:35;31.80;75.80
62154;DHT22;48140;45.486;9.226;2023-07-20T09:34:00;31.60;74.90
62154;DHT22;48140;45.486;9.226;2023-07-20T09:36:26;31.80;72.70
62154;DHT22;48140;45.486;9.226;2023-07-20T09:38:52;32.10;73.40
62154;DHT22;48140;45.486;9.226;2023-07-20T09:41:18;32.30;73.20
62154;DHT22;48140;45.486;9.226;2023-07-20T09:43:43;32.30;70.20
62154;DHT22;48140;45.486;9.226;2023-07-20T09:46:10;31.80;73.20
62154;DHT22;48140;45.486;9.226;2023-07-20T09:48:36;31.60;73.40
62154;DHT22;48140;45.486;9.226;2023-07-20T09:51:01;31.50;73.40
62154;DHT22;48140;45.486;9.226;2023-07-20T09:53:27;31.20;74.60
62154;DHT22;48140;45.486;9.226;2023-07-20T09:55:53;31.30;73.60
62154;DHT22;48140;45.486;9.226;2023-07-20T09:58:21;31.30;74.40
62154;DHT22;48140;45.486;9.226;2023-07-20T10:00:48;31.90;72.90
62154;DHT22;48140;45.486;9.226;2023-07-20T10:03:19;32.10;71.40
62154;DHT22;48140;45.486;9.226;2023-07-20T10:05:52;32.50;70.20
62154;DHT22;48140;45.486;9.226;2023-07-20T10:08:19;32.80;68.40
62154;DHT22;48140;45.486;9.226;2023-07-20T10:10:45;33.30;67.70
62154;DHT22;48140;45.486;9.226;2023-07-20T10:13:21;33.50;66.20
62154;DHT22;48140;45.486;9.226;2023-07-20T10:15:51;33.00;66.70
62154;DHT22;48140;45.486;9.226;2023-07-20T10:21:03;32.90;67.50
62154;DHT22;48140;45.486;9.226;2023-07-20T10:23:31;32.90;67.30
62154;DHT22;48140;45.486;9.226;2023-07-20T10:25:58;33.20;66.10
62154;DHT22;48140;45.486;9.226;2023-07-20T10:28:24;33.40;66.40
62154;DHT22;48140;45.486;9.226;2023-07-20T10:30:50;33.70;65.00
62154;DHT22;48140;45.486;9.226;2023-07-20T10:33:16;33.50;63.40
62154;DHT22;48140;45.486;9.226;2023-07-20T10:38:17;33.50;64.90
62154;DHT22;48140;45.486;9.226;2023-07-20T10:40:42;33.30;64.80
62154;DHT22;48140;45.486;9.226;2023-07-20T10:43:09;33.40;65.00
62154;DHT22;48140;45.486;9.226;2023-07-20T10:48:04;33.70;64.40
62154;DHT22;48140;45.486;9.226;2023-07-20T10:50:32;33.80;63.40
62154;DHT22;48140;45.486;9.226;2023-07-20T10:53:13;34.10;62.60
62154;DHT22;48140;45.486;9.226;2023-07-20T10:55:39;34.20;61.70
62154;DHT22;48140;45.486;9.226;2023-07-20T10:58:06;34.40;61.70
62154;DHT22;48140;45.486;9.226;2023-07-20T11:00:32;34.50;60.40
62154;DHT22;48140;45.486;9.226;2023-07-20T11:02:58;34.50;60.30
62154;DHT22;48140;45.486;9.226;2023-07-20T11:05:38;34.20;61.40
62154;DHT22;48140;45.486;9.226;2023-07-20T11:08:11;34.10;63.30
62154;DHT22;48140;45.486;9.226;2023-07-20T11:10:37;34.10;63.60
62154;DHT22;48140;45.486;9.226;2023-07-20T11:16:08;34.00;63.30
62154;DHT22;48140;45.486;9.226;2023-07-20T11:18:33;34.60;61.00
62154;DHT22;48140;45.486;9.226;2023-07-20T11:20:59;34.90;60.00
62154;DHT22;48140;45.486;9.226;2023-07-20T11:23:25;34.50;60.00
62154;DHT22;48140;45.486;9.226;2023-07-20T11:25:51;34.40;61.00
62154;DHT22;48140;45.486;9.226;2023-07-20T11:28:16;34.50;61.20
62154;DHT22;48140;45.486;9.226;2023-07-20T11:30:42;34.60;59.90
62154;DHT22;48140;45.486;9.226;2023-07-20T11:33:10;34.40;61.20
62154;DHT22;48140;45.486;9.226;2023-07-20T11:35:45;34.10;61.40
62154;DHT22;48140;45.486;9.226;2023-07-20T11:38:12;34.40;60.40
62154;DHT22;48140;45.486;9.226;2023-07-20T11:40:42;33.60;63.30
62154;DHT22;48140;45.486;9.226;2023-07-20T11:43:07;34.10;63.20
62154;DHT22;48140;45.486;9.226;2023-07-20T11:45:33;34.30;60.70
62154;DHT22;48140;45.486;9.226;2023-07-20T11:47:59;34.80;60.20
62154;DHT22;48140;45.486;9.226;2023-07-20T11:50:25;35.30;57.90
62154;DHT22;48140;45.486;9.226;2023-07-20T11:52:51;35.20;56.30
62154;DHT22;48140;45.486;9.226;2023-07-20T11:55:16;35.10;57.20
62154;DHT22;48140;45.486;9.226;2023-07-20T11:57:57;34.80;58.20
62154;DHT22;48140;45.486;9.226;2023-07-20T12:00:25;34.70;58.50
62154;DHT22;48140;45.486;9.226;2023-07-20T12:02:53;34.90;58.20
62154;DHT22;48140;45.486;9.226;2023-07-20T12:05:18;34.50;58.20
62154;DHT22;48140;45.486;9.226;2023-07-20T12:07:44;34.50;59.30
62154;DHT22;48140;45.486;9.226;2023-07-20T12:10:10;34.80;58.10
62154;DHT22;48140;45.486;9.226;2023-07-20T12:12:42;35.00;57.10
62154;DHT22;48140;45.486;9.226;2023-07-20T12:15:15;35.40;56.60
62154;DHT22;48140;45.486;9.226;2023-07-20T12:17:44;35.70;56.00
62154;DHT22;48140;45.486;9.226;2023-07-20T12:20:10;36.20;53.90
62154;DHT22;48140;45.486;9.226;2023-07-20T12:22:39;36.50;52.00
62154;DHT22;48140;45.486;9.226;2023-07-20T12:25:05;36.60;50.30
62154;DHT22;48140;45.486;9.226;2023-07-20T12:27:31;36.10;50.50
62154;DHT22;48140;45.486;9.226;2023-07-20T12:29:57;36.30;50.90
62154;DHT22;48140;45.486;9.226;2023-07-20T12:32:23;36.40;49.80
62154;DHT22;48140;45.486;9.226;2023-07-20T12:34:48;36.20;50.50
62154;DHT22;48140;45.486;9.226;2023-07-20T12:37:13;36.00;50.40
62154;DHT22;48140;45.486;9.226;2023-07-20T12:39:43;36.00;49.40
62154;DHT22;48140;45.486;9.226;2023-07-20T12:42:12;35.40;51.00
62154;DHT22;48140;45.486;9.226;2023-07-20T12:44:37;35.30;49.90
62154;DHT22;48140;45.486;9.226;2023-07-20T12:47:03;35.10;52.60
62154;DHT22;48140;45.486;9.226;2023-07-20T12:49:29;35.50;52.10
62154;DHT22;48140;45.486;9.226;2023-07-20T12:51:54;35.60;50.60
62154;DHT22;48140;45.486;9.226;2023-07-20T12:54:20;35.50;51.70
62154;DHT22;48140;45.486;9.226;2023-07-20T12:56:45;35.50;50.90
62154;DHT22;48140;45.486;9.226;2023-07-20T12:59:10;35.60;50.70
62154;DHT22;48140;45.486;9.226;2023-07-20T13:01:36;35.80;50.10
62154;DHT22;48140;45.486;9.226;2023-07-20T13:04:03;36.00;48.40
62154;DHT22;48140;45.486;9.226;2023-07-20T13:06:30;36.20;46.60
62154;DHT22;48140;45.486;9.226;2023-07-20T13:08:55;36.30;46.50
62154;DHT22;48140;45.486;9.226;2023-07-20T13:11:23;36.30;47.10
62154;DHT22;48140;45.486;9.226;2023-07-20T13:13:49;36.30;47.20
62154;DHT22;48140;45.486;9.226;2023-07-20T13:16:14;36.30;45.90
62154;DHT22;48140;45.486;9.226;2023-07-20T13:18:40;36.50;45.30
62154;DHT22;48140;45.486;9.226;2023-07-20T13:21:05;36.60;45.50
62154;DHT22;48140;45.486;9.226;2023-07-20T13:23:36;36.80;44.70
62154;DHT22;48140;45.486;9.226;2023-07-20T13:26:04;36.90;43.00
62154;DHT22;48140;45.486;9.226;2023-07-20T13:28:29;37.10;42.50
62154;DHT22;48140;45.486;9.226;2023-07-20T13:30:55;37.10;42.50
62154;DHT22;48140;45.486;9.226;2023-07-20T13:33:21;37.40;42.30
62154;DHT22;48140;45.486;9.226;2023-07-20T13:35:46;37.60;40.80
62154;DHT22;48140;45.486;9.226;2023-07-20T13:38:12;37.70;41.10
62154;DHT22;48140;45.486;9.226;2023-07-20T13:40:37;37.20;42.60
62154;DHT22;48140;45.486;9.226;2023-07-20T13:43:03;37.40;42.80
62154;DHT22;48140;45.486;9.226;2023-07-20T13:45:28;37.70;41.70
62154;DHT22;48140;45.486;9.226;2023-07-20T13:47:56;37.60;41.80
62154;DHT22;48140;45.486;9.226;2023-07-20T13:50:22;37.50;42.10
62154;DHT22;48140;45.486;9.226;2023-07-20T13:52:48;37.70;41.80
62154;DHT22;48140;45.486;9.226;2023-07-20T13:55:13;37.90;41.00
62154;DHT22;48140;45.486;9.226;2023-07-20T13:57:39;38.00;39.80
62154;DHT22;48140;45.486;9.226;2023-07-20T14:00:05;38.00;39.20
62154;DHT22;48140;45.486;9.226;2023-07-20T14:02:33;37.90;38.80
62154;DHT22;48140;45.486;9.226;2023-07-20T14:04:59;38.00;38.70
62154;DHT22;48140;45.486;9.226;2023-07-20T14:07:25;38.10;38.20
62154;DHT22;48140;45.486;9.226;2023-07-20T14:09:50;38.10;39.10
62154;DHT22;48140;45.486;9.226;2023-07-20T14:12:16;38.10;38.50
62154;DHT22;48140;45.486;9.226;2023-07-20T14:14:42;38.30;38.30
62154;DHT22;48140;45.486;9.226;2023-07-20T14:17:08;38.40;35.80
62154;DHT22;48140;45.486;9.226;2023-07-20T14:19:37;38.10;37.70
62154;DHT22;48140;45.486;9.226;2023-07-20T14:22:02;38.40;37.70
62154;DHT22;48140;45.486;9.226;2023-07-20T14:24:29;38.30;38.90
62154;DHT22;48140;45.486;9.226;2023-07-20T14:26:55;38.00;40.10
62154;DHT22;48140;45.486;9.226;2023-07-20T14:29:21;37.90;40.00
62154;DHT22;48140;45.486;9.226;2023-07-20T14:31:46;38.00;39.20
62154;DHT22;48140;45.486;9.226;2023-07-20T14:34:18;38.10;39.10
62154;DHT22;48140;45.486;9.226;2023-07-20T14:36:44;38.30;37.80
62154;DHT22;48140;45.486;9.226;2023-07-20T14:39:10;38.40;37.70
62154;DHT22;48140;45.486;9.226;2023-07-20T14:41:35;38.40;36.80
62154;DHT22;48140;45.486;9.226;2023-07-20T14:44:01;38.60;36.60
62154;DHT22;48140;45.486;9.226;2023-07-20T14:46:27;38.80;35.80
62154;DHT22;48140;45.486;9.226;2023-07-20T14:48:52;38.80;35.10
62154;DHT22;48140;45.486;9.226;2023-07-20T14:51:18;39.00;35.20
62154;DHT22;48140;45.486;9.226;2023-07-20T14:53:44;39.10;34.00
62154;DHT22;48140;45.486;9.226;2023-07-20T14:56:10;39.20;34.70
62154;DHT22;48140;45.486;9.226;2023-07-20T14:58:35;39.30;34.20
62154;DHT22;48140;45.486;9.226;2023-07-20T15:01:01;39.40;33.20
62154;DHT22;48140;45.486;9.226;2023-07-20T15:03:26;39.40;33.00
62154;DHT22;48140;45.486;9.226;2023-07-20T15:05:52;39.40;33.10
62154;DHT22;48140;45.486;9.226;2023-07-20T15:08:17;39.20;33.00
62154;DHT22;48140;45.486;9.226;2023-07-20T15:10:44;39.10;33.00
62154;DHT22;48140;45.486;9.226;2023-07-20T15:13:12;39.00;32.90
62154;DHT22;48140;45.486;9.226;2023-07-20T15:15:37;38.80;33.60
62154;DHT22;48140;45.486;9.226;2023-07-20T15:18:03;38.50;34.70
62154;DHT22;48140;45.486;9.226;2023-07-20T15:20:28;38.30;35.30
62154;DHT22;48140;45.486;9.226;2023-07-20T15:22:57;38.10;34.90
62154;DHT22;48140;45.486;9.226;2023-07-20T15:25:22;38.30;35.40
62154;DHT22;48140;45.486;9.226;2023-07-20T15:27:48;38.50;34.40
62154;DHT22;48140;45.486;9.226;2023-07-20T15:30:14;38.60;34.50
62154;DHT22;48140;45.486;9.226;2023-07-20T15:32:40;38.30;35.50
62154;DHT22;48140;45.486;9.226;2023-07-20T15:35:06;38.40;34.90
62154;DHT22;48140;45.486;9.226;2023-07-20T15:37:32;38.10;34.20
62154;DHT22;48140;45.486;9.226;2023-07-20T15:39:58;38.30;35.30